createdAt,value
2017-10-18T00:00:44.310Z,12.20
2017-10-18T00:03:11.843Z,13.10
2017-10-18T00:05:39.431Z,14.30
2017-10-18T00:08:07.070Z,15.57
2017-10-18T00:10:34.636Z,12.60
2017-10-18T00:13:02.937Z,13.03
2017-10-18T00:15:30.851Z,13.73
2017-10-18T00:17:58.364Z,13.50
2017-10-18T00:20:25.891Z,12.50
2017-10-18T00:22:54.164Z,13.20
2017-10-18T00:25:22.467Z,12.10
2017-10-18T00:27:50.755Z,13.53
2017-10-18T00:30:18.271Z,13.40
2017-10-18T00:32:47.296Z,14.50
2017-10-18T00:35:14.812Z,14.50
2017-10-18T00:37:42.415Z,11.97
2017-10-18T00:40:09.977Z,12.30
2017-10-18T00:42:37.523Z,11.57
2017-10-18T00:45:05.037Z,13.87
2017-10-18T00:47:34.059Z,12.87
2017-10-18T00:50:02.351Z,13.07
2017-10-18T00:52:29.910Z,13.40
2017-10-18T00:54:57.438Z,12.27
2017-10-18T00:57:25.031Z,12.60
2017-10-18T00:59:52.560Z,12.50
2017-10-18T01:02:20.866Z,14.13
2017-10-18T02:10:44.791Z,16.13
2017-10-18T02:13:12.311Z,14.00
2017-10-18T02:15:40.586Z,13.97
2017-10-18T02:18:08.875Z,12.60
2017-10-18T02:20:36.437Z,12.80
2017-10-18T02:23:03.963Z,12.07
2017-10-18T02:25:31.479Z,11.57
2017-10-18T02:27:59.021Z,12.50
2017-10-18T02:30:26.581Z,13.03
2017-10-18T02:32:54.127Z,12.13
2017-10-18T02:35:22.020Z,15.03
2017-10-18T02:37:49.566Z,14.73
2017-10-18T02:40:17.100Z,14.07
2017-10-18T02:42:45.376Z,13.97
2017-10-18T02:45:14.087Z,13.60
2017-10-18T02:47:41.599Z,15.73
2017-10-18T02:50:09.125Z,13.80
2017-10-18T02:52:37.276Z,13.10
2017-10-18T02:55:04.800Z,12.63
2017-10-18T02:57:33.078Z,13.50
2017-10-18T03:00:01.379Z,13.67
2017-10-18T03:02:28.936Z,13.63
2017-10-18T03:04:56.463Z,11.97
2017-10-18T03:07:24.735Z,11.53
2017-10-18T03:09:52.328Z,12.37
2017-10-18T03:12:19.846Z,12.17
2017-10-18T03:14:47.776Z,13.77
2017-10-18T03:17:15.312Z,14.00
2017-10-18T03:19:42.839Z,15.13
2017-10-18T03:22:11.115Z,14.47
2017-10-18T03:24:39.415Z,12.10
2017-10-18T03:27:06.983Z,15.17
2017-10-18T03:29:34.531Z,13.50
2017-10-18T03:32:02.803Z,14.33
2017-10-18T03:34:31.087Z,14.43
2017-10-18T03:36:58.656Z,13.70
2017-10-18T03:39:26.216Z,12.47
2017-10-18T03:41:53.744Z,13.60
2017-10-18T03:44:22.015Z,13.87
2017-10-18T03:46:50.310Z,13.60
2017-10-18T03:49:18.584Z,13.70
2017-10-18T03:51:46.986Z,14.37
2017-10-18T03:54:14.499Z,13.27
2017-10-18T03:56:42.031Z,12.70
2017-10-18T03:59:09.549Z,13.50
2017-10-18T04:01:37.107Z,14.97
2017-10-18T04:04:04.620Z,15.63
2017-10-18T04:06:32.148Z,14.50
2017-10-18T04:08:59.660Z,15.20
2017-10-18T04:11:27.954Z,15.07
2017-10-18T04:13:55.515Z,15.37
2017-10-18T04:16:23.631Z,14.27
2017-10-18T04:18:51.139Z,13.20
2017-10-18T04:21:18.712Z,15.50
2017-10-18T04:23:46.267Z,14.70
2017-10-18T04:26:13.792Z,13.60
2017-10-18T04:28:41.310Z,11.73
2017-10-18T04:31:09.063Z,12.40
2017-10-18T04:33:36.577Z,13.83
2017-10-18T04:36:04.867Z,13.50
2017-10-18T04:38:33.144Z,13.77
2017-10-18T04:41:01.542Z,12.17
2017-10-18T04:43:29.050Z,13.43
2017-10-18T04:45:56.653Z,12.70
2017-10-18T04:48:24.179Z,13.77
2017-10-18T04:50:52.495Z,13.50
2017-10-18T04:53:20.460Z,15.40
2017-10-18T04:55:47.974Z,14.40
2017-10-18T04:58:15.511Z,13.40
2017-10-18T05:00:43.027Z,13.17
2017-10-18T05:03:10.551Z,13.73
2017-10-18T05:05:38.838Z,16.00
2017-10-18T05:08:07.131Z,13.43
2017-10-18T05:10:34.702Z,14.00
2017-10-18T05:13:02.260Z,12.20
2017-10-18T05:15:29.791Z,13.07
2017-10-18T05:17:58.100Z,15.00
2017-10-18T05:20:25.611Z,14.13
2017-10-18T05:22:53.148Z,12.67
2017-10-18T05:25:20.656Z,12.60
2017-10-18T05:27:49.057Z,12.70
2017-10-18T05:30:16.623Z,11.10
2017-10-18T05:32:45.092Z,12.83
2017-10-18T05:35:12.603Z,10.93
2017-10-18T05:37:40.130Z,12.33
2017-10-18T05:40:07.650Z,13.10
2017-10-18T05:42:35.190Z,12.00
2017-10-18T05:45:03.463Z,12.00
2017-10-18T05:47:31.670Z,13.20
2017-10-18T05:49:59.200Z,13.80
2017-10-18T05:52:27.663Z,20.40
2017-10-18T05:54:55.196Z,12.10
2017-10-18T05:57:22.712Z,13.47
2017-10-18T05:59:51.101Z,13.30
2017-10-18T06:02:18.668Z,12.23
2017-10-18T06:04:46.212Z,12.53
2017-10-18T06:07:13.780Z,12.17
2017-10-18T06:09:41.304Z,14.77
2017-10-18T06:12:08.810Z,12.37
2017-10-18T06:14:36.351Z,13.23
2017-10-18T06:17:03.914Z,12.77
2017-10-18T06:19:31.443Z,14.27
2017-10-18T06:21:59.721Z,12.20
2017-10-18T06:24:28.028Z,13.87
2017-10-18T06:26:55.535Z,12.80
2017-10-18T06:29:23.063Z,12.70
2017-10-18T06:31:50.593Z,14.07
2017-10-18T06:34:18.120Z,11.87
2017-10-18T06:36:45.900Z,11.23
2017-10-18T06:39:14.195Z,14.13
2017-10-18T06:41:43.392Z,14.63
2017-10-18T06:44:10.919Z,13.30
2017-10-18T06:46:39.229Z,17.57
2017-10-18T06:49:06.751Z,12.17
2017-10-18T06:51:34.348Z,17.80
2017-10-18T06:54:01.863Z,15.17
2017-10-18T06:56:29.394Z,14.30
2017-10-18T06:58:56.902Z,12.70
2017-10-18T07:01:25.808Z,16.33
2017-10-18T07:03:53.315Z,13.23
2017-10-18T07:06:20.846Z,17.07
2017-10-18T07:08:48.367Z,15.23
2017-10-18T07:11:16.686Z,15.40
2017-10-18T07:13:44.200Z,15.27
2017-10-18T07:16:12.500Z,13.57
2017-10-18T07:18:40.051Z,14.33
2017-10-18T07:21:07.570Z,13.80
2017-10-18T07:23:35.075Z,13.53
2017-10-18T07:26:02.620Z,14.17
2017-10-18T07:28:30.183Z,13.87
2017-10-18T07:30:57.707Z,14.17
2017-10-18T07:33:25.213Z,13.30
2017-10-18T07:35:52.736Z,13.57
2017-10-18T07:38:21.032Z,14.00
2017-10-18T07:40:48.608Z,15.47
2017-10-18T07:43:16.115Z,15.73
2017-10-18T07:45:43.639Z,13.93
2017-10-18T07:48:11.147Z,19.83
2017-10-18T07:50:39.434Z,15.37
2017-10-18T07:53:07.715Z,14.63
2017-10-18T07:55:35.263Z,14.83
2017-10-18T07:58:03.538Z,15.43
2017-10-18T08:00:31.810Z,15.80
2017-10-18T08:03:00.100Z,16.03
2017-10-18T08:05:27.608Z,15.67
2017-10-18T08:07:55.127Z,17.80
2017-10-18T08:10:22.638Z,16.67
2017-10-18T08:12:50.164Z,16.03
2017-10-18T08:15:17.699Z,15.97
2017-10-18T08:17:45.223Z,20.50
2017-10-18T08:20:12.735Z,17.70
2017-10-18T08:22:40.263Z,17.20
2017-10-18T08:25:07.775Z,18.43
2017-10-18T08:27:35.387Z,18.40
2017-10-18T08:30:02.947Z,16.90
2017-10-18T08:32:30.471Z,19.97
2017-10-18T08:34:57.975Z,17.07
2017-10-18T08:37:25.499Z,21.30
2017-10-18T08:39:53.776Z,16.90
2017-10-18T08:42:22.072Z,16.63
2017-10-18T08:44:49.587Z,18.20
2017-10-18T08:47:17.108Z,16.87
2017-10-18T08:49:44.619Z,15.33
2017-10-18T08:52:13.336Z,17.30
2017-10-18T08:54:40.904Z,17.17
2017-10-18T08:57:08.463Z,19.03
2017-10-18T08:59:36.014Z,18.93
2017-10-18T09:02:03.530Z,18.43
2017-10-18T09:04:31.127Z,18.87
2017-10-18T09:06:58.634Z,16.97
2017-10-18T09:09:26.676Z,19.47
2017-10-18T09:11:54.198Z,19.30
2017-10-18T09:14:22.487Z,17.00
2017-10-18T09:16:49.993Z,19.20
2017-10-18T09:19:17.516Z,17.80
2017-10-18T09:21:45.024Z,18.03
2017-10-18T09:24:12.554Z,24.57
2017-10-18T09:26:40.058Z,18.00
2017-10-18T09:29:08.354Z,17.27
2017-10-18T09:31:35.862Z,17.70
2017-10-18T09:34:03.383Z,20.53
2017-10-18T09:36:30.897Z,17.63
2017-10-18T09:38:58.423Z,22.73
2017-10-18T09:41:25.931Z,17.00
2017-10-18T09:43:54.204Z,17.87
2017-10-18T09:46:22.490Z,18.70
2017-10-18T09:48:50.758Z,16.80
2017-10-18T09:51:19.047Z,19.90
2017-10-18T09:53:46.556Z,18.33
2017-10-18T09:56:14.176Z,16.73
2017-10-18T09:58:41.683Z,17.13
2017-10-18T10:01:09.287Z,15.90
2017-10-18T10:03:37.472Z,20.27
2017-10-18T10:06:04.995Z,16.20
2017-10-18T10:08:33.271Z,16.50
2017-10-18T10:11:01.566Z,15.07
2017-10-18T10:13:29.071Z,13.87
2017-10-18T10:15:56.590Z,13.57
2017-10-18T10:18:24.586Z,13.63
2017-10-18T10:20:52.128Z,14.33
2017-10-18T10:23:19.682Z,13.37
2017-10-18T10:25:47.208Z,13.27
2017-10-18T10:28:15.506Z,13.07
2017-10-18T10:30:43.053Z,11.97
2017-10-18T10:33:11.326Z,13.43
2017-10-18T10:35:39.607Z,12.80
2017-10-18T10:38:07.899Z,12.23
2017-10-18T10:40:35.410Z,12.73
2017-10-18T10:43:03.723Z,15.43
2017-10-18T10:45:31.290Z,11.67
2017-10-18T10:47:59.155Z,14.30
2017-10-18T10:50:26.657Z,11.83
2017-10-18T10:52:54.392Z,11.43
2017-10-18T10:55:21.932Z,12.57
2017-10-18T10:57:49.515Z,12.80
2017-10-18T11:00:17.018Z,11.47
2017-10-18T11:02:44.547Z,13.20
2017-10-18T11:05:12.478Z,11.37
2017-10-18T11:07:40.343Z,13.90
2017-10-18T11:10:08.736Z,12.30
2017-10-18T11:12:36.275Z,12.63
2017-10-18T11:15:03.778Z,13.27
2017-10-18T11:17:31.299Z,10.07
2017-10-18T11:19:58.808Z,10.53
2017-10-18T11:22:26.515Z,10.07
2017-10-18T11:24:54.074Z,8.17
2017-10-18T11:27:22.260Z,9.67
2017-10-18T11:29:49.802Z,8.60
2017-10-18T11:32:17.326Z,8.13
2017-10-18T11:34:45.595Z,8.93
2017-10-18T11:37:13.111Z,14.10
2017-10-18T11:39:40.613Z,8.33
2017-10-18T11:42:08.143Z,10.83
2017-10-18T11:44:35.685Z,10.73
2017-10-18T11:47:03.223Z,13.70
2017-10-18T11:49:31.508Z,10.50
2017-10-18T11:51:59.018Z,9.87
2017-10-18T11:54:26.532Z,9.17
2017-10-18T11:56:54.083Z,9.47
2017-10-18T11:59:21.600Z,9.50
2017-10-18T12:01:49.107Z,8.73
2017-10-18T12:04:16.628Z,9.20
2017-10-18T12:06:44.899Z,8.87
2017-10-18T12:09:12.414Z,9.57
2017-10-18T12:11:39.920Z,10.77
2017-10-18T12:14:08.197Z,9.97
2017-10-18T12:16:36.471Z,10.20
2017-10-18T12:19:04.059Z,9.30
2017-10-18T12:21:31.623Z,9.70
2017-10-18T12:23:59.163Z,11.07
2017-10-18T12:26:27.430Z,8.60
2017-10-18T12:28:55.699Z,9.97
2017-10-18T12:31:23.221Z,10.63
2017-10-18T12:33:50.722Z,8.33
2017-10-18T12:36:19.013Z,10.43
2017-10-18T12:38:46.636Z,8.70
2017-10-18T12:41:14.166Z,8.50
2017-10-18T12:43:41.675Z,10.43
2017-10-18T12:46:09.963Z,7.77
2017-10-18T12:48:39.068Z,8.57
2017-10-18T12:51:06.629Z,8.47
2017-10-18T12:53:34.130Z,9.73
2017-10-18T12:56:01.744Z,9.27
2017-10-18T12:58:29.304Z,9.40
2017-10-18T13:00:56.835Z,9.60
2017-10-18T13:03:25.205Z,7.83
2017-10-18T13:05:52.734Z,9.70
2017-10-18T13:08:20.954Z,9.83
2017-10-18T13:10:49.234Z,8.57
2017-10-18T13:13:17.962Z,8.30
2017-10-18T13:15:45.474Z,7.90
2017-10-18T13:18:13.739Z,8.23
2017-10-18T13:20:41.259Z,8.70
2017-10-18T13:23:08.755Z,7.70
2017-10-18T13:25:37.078Z,9.57
2017-10-18T13:28:04.770Z,8.60
2017-10-18T13:30:32.379Z,9.87
2017-10-18T13:32:59.903Z,9.27
2017-10-18T13:35:27.435Z,8.70
2017-10-18T13:37:54.939Z,8.63
2017-10-18T13:40:23.203Z,9.27
2017-10-18T13:42:50.738Z,8.03
2017-10-18T13:45:18.247Z,8.10
2017-10-18T13:47:45.763Z,8.10
2017-10-18T13:50:13.879Z,11.07
2017-10-18T13:52:41.430Z,8.70
2017-10-18T13:55:09.691Z,8.33
2017-10-18T13:57:37.995Z,7.60
2017-10-18T14:00:05.551Z,8.73
2017-10-18T14:02:33.196Z,9.07
2017-10-18T14:05:01.464Z,8.60
2017-10-18T14:07:29.758Z,8.27
2017-10-18T14:09:57.259Z,7.67
2017-10-18T14:12:24.777Z,9.07
2017-10-18T14:14:52.283Z,7.60
2017-10-18T14:17:19.799Z,7.50
2017-10-18T14:19:47.718Z,8.33
2017-10-18T14:22:15.259Z,8.13
2017-10-18T14:24:42.766Z,7.87
2017-10-18T14:27:11.051Z,8.07
2017-10-18T14:29:38.567Z,10.43
2017-10-18T14:32:06.070Z,10.60
2017-10-18T14:34:33.586Z,8.17
2017-10-18T14:37:01.182Z,8.40
2017-10-18T14:39:28.747Z,7.10
2017-10-18T14:41:56.250Z,8.07
2017-10-18T14:44:23.768Z,8.33
2017-10-18T14:46:51.267Z,8.93
2017-10-18T14:49:18.880Z,8.03
2017-10-18T14:51:47.150Z,8.03
2017-10-18T14:54:14.667Z,7.17
2017-10-18T14:56:42.954Z,7.23
2017-10-18T14:59:10.555Z,8.10
2017-10-18T15:01:38.058Z,9.27
2017-10-18T15:04:05.580Z,8.70
2017-10-18T15:06:33.122Z,6.97
2017-10-18T15:09:00.639Z,11.73
2017-10-18T15:11:29.611Z,8.27
2017-10-18T15:13:57.131Z,7.93
2017-10-18T15:16:24.643Z,8.90
2017-10-18T15:18:52.252Z,8.10
2017-10-18T15:21:19.920Z,7.53
2017-10-18T15:23:47.436Z,7.73
2017-10-18T15:26:14.939Z,7.80
2017-10-18T15:28:42.463Z,7.50
2017-10-18T15:31:11.230Z,9.33
2017-10-18T15:33:38.828Z,8.30
2017-10-18T15:36:06.331Z,9.43
2017-10-18T15:38:33.863Z,8.23
2017-10-18T15:41:01.358Z,8.20
2017-10-18T15:43:28.868Z,8.60
2017-10-18T15:45:56.428Z,8.00
2017-10-18T15:48:23.934Z,9.20
2017-10-18T15:50:51.450Z,8.00
2017-10-18T15:53:19.133Z,8.33
2017-10-18T15:55:46.860Z,7.17
2017-10-18T15:58:14.354Z,8.37
2017-10-18T16:00:41.873Z,7.50
2017-10-18T16:03:09.377Z,7.70
2017-10-18T16:05:36.995Z,8.57
2017-10-18T16:08:04.500Z,8.43
2017-10-18T16:10:32.110Z,8.70
2017-10-18T16:12:59.670Z,8.43
2017-10-18T16:15:27.246Z,8.03
2017-10-18T16:17:55.023Z,10.10
2017-10-18T16:20:22.555Z,14.80
2017-10-18T16:22:50.055Z,12.40
2017-10-18T16:25:17.570Z,9.33
2017-10-18T16:27:45.133Z,12.03
2017-10-18T16:30:12.682Z,11.43
2017-10-18T16:32:41.052Z,10.43
2017-10-18T16:35:09.443Z,11.13
2017-10-18T16:37:37.247Z,10.53
2017-10-18T16:40:04.976Z,10.77
2017-10-18T16:42:32.478Z,9.57
2017-10-18T16:44:59.987Z,9.80
2017-10-18T16:47:27.511Z,11.57
2017-10-18T16:49:55.017Z,9.60
2017-10-18T16:52:22.566Z,13.27
2017-10-18T16:54:50.124Z,11.97
2017-10-18T16:57:17.658Z,12.57
2017-10-18T16:59:45.956Z,12.27
2017-10-18T17:02:13.479Z,11.30
2017-10-18T17:04:40.985Z,11.63
2017-10-18T17:07:08.507Z,12.47
2017-10-18T17:09:36.782Z,16.00
2017-10-18T17:12:05.070Z,21.87
2017-10-18T17:14:32.642Z,29.30
2017-10-18T17:17:00.217Z,38.17
2017-10-18T17:19:27.722Z,50.00
2017-10-18T17:21:55.243Z,75.63
2017-10-18T17:24:22.778Z,66.70
2017-10-18T17:26:50.340Z,68.00
2017-10-18T17:29:17.852Z,59.10
2017-10-18T17:31:45.383Z,62.63
2017-10-18T17:34:12.892Z,58.93
2017-10-18T17:36:41.191Z,42.50
2017-10-18T17:39:08.700Z,27.20
2017-10-18T17:41:36.216Z,26.33
2017-10-18T17:44:03.763Z,18.43
2017-10-18T17:46:31.419Z,16.53
2017-10-18T17:48:58.946Z,20.47
2017-10-18T17:51:26.463Z,21.07
2017-10-18T17:53:53.987Z,20.00
2017-10-18T17:56:22.272Z,21.43
2017-10-18T17:58:49.833Z,13.87
2017-10-18T18:01:17.354Z,12.57
2017-10-18T18:03:44.891Z,11.87
2017-10-18T18:06:12.395Z,12.73
2017-10-18T18:08:41.338Z,12.90
2017-10-18T18:11:08.917Z,13.53
2017-10-18T18:13:36.456Z,13.87
2017-10-18T18:16:03.977Z,14.40
2017-10-18T18:18:32.322Z,12.57
2017-10-18T18:21:00.635Z,13.10
2017-10-18T18:23:28.171Z,16.33
2017-10-18T18:25:56.567Z,11.70
2017-10-18T18:28:24.127Z,13.47
2017-10-18T18:30:51.653Z,23.70
2017-10-18T18:33:19.950Z,21.47
2017-10-18T18:35:47.936Z,20.47
2017-10-18T18:38:15.470Z,14.40
2017-10-18T18:40:43.764Z,12.90
2017-10-18T18:43:11.279Z,12.63
2017-10-18T18:45:38.803Z,10.43
2017-10-18T18:48:06.320Z,10.77
2017-10-18T18:50:34.625Z,12.13
2017-10-18T18:53:02.141Z,11.57
2017-10-18T18:55:30.468Z,11.60
2017-10-18T18:57:58.292Z,14.33
2017-10-18T19:00:25.887Z,13.87
2017-10-18T19:02:53.484Z,11.83
2017-10-18T19:05:21.172Z,13.40
2017-10-18T19:07:49.478Z,13.90
2017-10-18T19:10:17.123Z,14.70
2017-10-18T19:12:45.520Z,15.40
2017-10-18T19:15:13.074Z,12.83
2017-10-18T19:17:40.613Z,12.23
2017-10-18T19:20:08.300Z,15.57
2017-10-18T19:22:35.991Z,14.70
2017-10-18T19:25:04.340Z,14.67
2017-10-18T19:27:32.038Z,14.53
2017-10-18T19:29:59.690Z,14.50
2017-10-18T19:32:27.260Z,13.40
2017-10-18T19:34:54.804Z,12.60
2017-10-18T19:37:22.340Z,11.70
2017-10-18T19:39:50.032Z,10.57
2017-10-18T19:42:17.594Z,12.20
2017-10-18T19:44:45.407Z,12.10
2017-10-18T19:47:13.695Z,12.37
2017-10-18T19:49:41.216Z,12.30
2017-10-18T19:52:08.757Z,12.00
2017-10-18T19:54:36.501Z,11.50
2017-10-18T19:57:04.048Z,12.43
2017-10-18T19:59:31.566Z,13.70
2017-10-18T20:01:59.980Z,13.80
2017-10-18T20:04:27.837Z,21.17
2017-10-18T20:06:55.428Z,127.37
2017-10-18T20:09:22.946Z,45.23
2017-10-18T20:11:50.513Z,42.73
2017-10-18T20:14:18.033Z,22.13
2017-10-18T20:16:45.573Z,20.13
2017-10-18T20:19:13.613Z,15.67
2017-10-18T20:21:41.160Z,14.90
2017-10-18T20:24:08.692Z,26.33
2017-10-18T20:26:37.003Z,21.17
2017-10-18T20:29:04.522Z,27.83
2017-10-18T20:31:32.893Z,23.60
2017-10-18T20:34:01.007Z,17.53
2017-10-18T20:36:28.883Z,19.47
2017-10-18T20:38:56.404Z,16.10
2017-10-18T20:41:24.709Z,16.80
2017-10-18T20:43:52.230Z,19.07
2017-10-18T20:46:20.536Z,13.83
2017-10-18T20:48:48.203Z,13.03
2017-10-18T20:51:16.553Z,37.07
2017-10-18T20:53:44.997Z,111.07
2017-10-18T20:56:12.525Z,18.90
2017-10-18T20:58:40.065Z,14.57
2017-10-18T21:01:07.588Z,12.90
2017-10-18T21:03:37.324Z,14.00
2017-10-18T21:06:05.612Z,12.27
2017-10-18T21:08:33.829Z,13.53
2017-10-18T21:11:01.364Z,12.60
2017-10-18T21:13:28.923Z,12.60
2017-10-18T21:15:56.436Z,11.90
2017-10-18T21:18:24.892Z,12.10
2017-10-18T21:20:52.441Z,12.90
2017-10-18T21:23:20.183Z,11.50
2017-10-18T21:25:48.118Z,10.77
2017-10-18T21:28:16.645Z,11.97
2017-10-18T21:30:44.165Z,12.57
2017-10-18T21:33:12.648Z,14.07
2017-10-18T21:35:40.171Z,12.73
2017-10-18T21:38:07.783Z,13.40
2017-10-18T21:40:35.314Z,12.80
2017-10-18T21:43:03.611Z,13.57
2017-10-18T21:45:31.129Z,12.20
2017-10-18T21:47:58.737Z,14.03
2017-10-18T21:50:26.260Z,12.23
2017-10-18T21:52:54.692Z,12.30
2017-10-18T21:55:22.205Z,11.47
2017-10-18T21:57:50.493Z,11.73
2017-10-18T22:00:18.466Z,13.20
2017-10-18T22:02:45.989Z,13.23
2017-10-18T22:05:13.537Z,12.53
2017-10-18T22:07:41.058Z,10.60
2017-10-18T22:10:08.602Z,12.60
2017-10-18T22:12:36.135Z,12.87
2017-10-18T22:15:04.465Z,12.90
2017-10-18T22:17:32.388Z,12.50
2017-10-18T22:20:00.679Z,11.33
2017-10-18T22:22:28.187Z,11.70
2017-10-18T22:24:55.707Z,12.03
2017-10-18T22:27:23.216Z,14.47
2017-10-18T22:29:50.810Z,12.33
2017-10-18T22:32:18.320Z,11.93
2017-10-18T22:34:45.847Z,12.33
2017-10-18T22:37:13.391Z,12.20
2017-10-18T22:39:40.948Z,11.47
2017-10-18T22:42:08.507Z,12.20
2017-10-18T22:44:36.034Z,11.80
2017-10-18T22:47:03.539Z,12.23
2017-10-18T22:49:31.064Z,13.50
2017-10-18T22:51:58.952Z,12.43
2017-10-18T22:54:26.499Z,15.93
2017-10-18T22:56:55.091Z,12.07
2017-10-18T22:59:22.612Z,12.27
2017-10-18T23:01:50.138Z,11.60
2017-10-18T23:04:17.643Z,12.30
2017-10-18T23:06:45.931Z,11.57
2017-10-18T23:09:13.499Z,12.90
2017-10-18T23:11:41.060Z,12.33
2017-10-18T23:14:08.567Z,11.20
2017-10-18T23:16:36.179Z,12.67
2017-10-18T23:19:03.694Z,13.03
2017-10-18T23:21:31.235Z,13.13
2017-10-18T23:23:58.742Z,11.40
2017-10-18T23:26:26.306Z,12.23
2017-10-18T23:28:54.283Z,13.63
2017-10-18T23:31:21.846Z,13.53
2017-10-18T23:33:50.264Z,10.30
2017-10-18T23:36:17.881Z,12.77
2017-10-18T23:38:45.395Z,12.77
2017-10-18T23:41:12.925Z,11.83
2017-10-18T23:43:40.467Z,15.23
2017-10-18T23:46:07.986Z,13.10
2017-10-18T23:48:36.290Z,12.57
2017-10-18T23:51:03.849Z,12.03
2017-10-18T23:53:31.379Z,14.23
2017-10-18T23:55:59.779Z,12.80
2017-10-18T23:58:27.286Z,15.47
